createdAt,value
2024-04-16T00:00:00.955Z,33.23
2024-04-16T00:01:01.042Z,33.26
2024-04-16T00:02:01.093Z,33.18
2024-04-16T00:03:01.004Z,33.20
2024-04-16T00:04:01.088Z,33.20
2024-04-16T00:05:01.237Z,33.24
2024-04-16T00:06:01.023Z,33.28
2024-04-16T00:07:01.061Z,33.33
2024-04-16T00:08:01.042Z,33.27
2024-04-16T00:09:01.044Z,33.26
2024-04-16T00:10:01.107Z,33.16
2024-04-16T00:11:08.064Z,33.08
2024-04-16T00:12:01.103Z,33.20
2024-04-16T00:13:01.223Z,33.06
2024-04-16T00:14:22.132Z,33.07
2024-04-16T00:15:01.127Z,33.07
2024-04-16T00:16:01.171Z,33.04
2024-04-16T00:17:12.081Z,33.00
2024-04-16T00:18:01.241Z,33.01
2024-04-16T00:19:01.198Z,32.91
2024-04-16T00:20:01.185Z,32.94
2024-04-16T00:21:01.190Z,32.91
2024-04-16T00:22:01.277Z,32.80
2024-04-16T00:23:01.234Z,32.77
2024-04-16T00:24:01.245Z,32.84
2024-04-16T00:25:01.298Z,32.67
2024-04-16T00:26:01.256Z,32.63
2024-04-16T00:27:01.289Z,32.62
2024-04-16T00:28:01.311Z,32.52
2024-04-16T00:29:01.302Z,32.52
2024-04-16T00:30:01.350Z,32.40
2024-04-16T00:31:01.377Z,32.45
2024-04-16T00:32:01.395Z,32.43
2024-04-16T00:33:01.409Z,32.57
2024-04-16T00:34:01.375Z,32.50
2024-04-16T00:35:01.387Z,32.56
2024-04-16T00:36:01.394Z,32.47
2024-04-16T00:37:01.444Z,32.47
2024-04-16T00:38:01.422Z,32.40
2024-04-16T00:39:16.047Z,32.29
2024-04-16T00:40:01.756Z,32.33
2024-04-16T00:41:01.638Z,32.30
2024-04-16T00:42:25.511Z,32.26
2024-04-16T00:43:01.698Z,32.29
2024-04-16T00:44:01.687Z,32.27
2024-04-16T00:45:22.697Z,32.22
2024-04-16T00:46:01.740Z,32.15
2024-04-16T00:47:01.765Z,32.12
2024-04-16T00:48:01.797Z,32.09
2024-04-16T00:49:01.757Z,32.03
2024-04-16T00:50:01.746Z,32.05
2024-04-16T00:51:01.773Z,32.03
2024-04-16T00:52:01.802Z,31.95
2024-04-16T00:53:01.791Z,32.01
2024-04-16T00:54:01.795Z,31.92
2024-04-16T00:55:01.840Z,31.76
2024-04-16T00:56:01.824Z,31.78
2024-04-16T00:57:01.838Z,31.72
2024-04-16T00:58:01.889Z,31.65
2024-04-16T00:59:01.869Z,31.61
2024-04-16T01:00:01.944Z,31.50
2024-04-16T01:01:02.014Z,31.35
2024-04-16T01:02:01.914Z,31.32
2024-04-16T01:03:01.940Z,31.28
2024-04-16T01:04:02.031Z,31.34
2024-04-16T01:05:02.007Z,31.18
2024-04-16T01:06:01.970Z,31.08
2024-04-16T01:07:23.096Z,31.14
2024-04-16T01:08:02.001Z,31.13
2024-04-16T01:09:02.015Z,31.03
2024-04-16T01:10:23.066Z,31.03
2024-04-16T01:11:02.068Z,30.98
2024-04-16T01:12:02.063Z,30.77
2024-04-16T01:13:02.083Z,30.78
2024-04-16T01:14:02.083Z,30.66
2024-04-16T01:15:02.094Z,30.62
2024-04-16T01:16:02.142Z,30.53
2024-04-16T01:17:02.131Z,30.49
2024-04-16T01:18:02.203Z,30.36
2024-04-16T01:19:02.184Z,30.27
2024-04-16T01:20:02.192Z,30.18
2024-04-16T01:21:02.170Z,30.19
2024-04-16T01:22:02.217Z,30.13
2024-04-16T01:23:02.207Z,30.02
2024-04-16T01:24:02.215Z,30.04
2024-04-16T01:25:02.263Z,29.91
2024-04-16T01:26:02.269Z,29.87
2024-04-16T01:27:02.279Z,30.01
2024-04-16T01:28:02.338Z,29.80
2024-04-16T01:29:09.027Z,29.72
2024-04-16T01:30:02.346Z,29.71
2024-04-16T01:31:02.370Z,29.68
2024-04-16T01:32:17.109Z,29.75
2024-04-16T01:33:02.389Z,29.58
2024-04-16T01:34:02.383Z,29.57
2024-04-16T01:35:23.395Z,29.63
2024-04-16T01:36:02.382Z,29.58
2024-04-16T01:37:02.441Z,29.57
2024-04-16T01:38:23.427Z,29.54
2024-04-16T01:39:02.470Z,29.41
2024-04-16T01:40:02.536Z,29.30
2024-04-16T01:41:02.544Z,29.41
2024-04-16T01:42:02.484Z,29.35
2024-04-16T01:43:02.505Z,29.44
2024-04-16T01:44:02.513Z,29.27
2024-04-16T01:45:02.591Z,29.30
2024-04-16T01:46:02.567Z,29.29
2024-04-16T01:47:02.649Z,29.33
2024-04-16T01:48:02.727Z,29.19
2024-04-16T01:49:03.024Z,29.21
2024-04-16T01:50:02.631Z,29.12
2024-04-16T01:51:02.624Z,29.06
2024-04-16T01:52:02.666Z,29.11
2024-04-16T01:53:02.682Z,29.01
2024-04-16T01:54:09.539Z,29.05
2024-04-16T01:55:02.756Z,29.03
2024-04-16T01:56:02.707Z,28.90
2024-04-16T01:57:17.546Z,28.86
2024-04-16T01:58:02.767Z,28.89
2024-04-16T01:59:02.739Z,28.84
2024-04-16T02:00:03.550Z,28.87
2024-04-16T02:01:02.864Z,28.83
2024-04-16T02:02:02.766Z,28.81
2024-04-16T02:03:31.547Z,28.79
2024-04-16T02:04:02.885Z,28.82
2024-04-16T02:05:02.875Z,28.73
2024-04-16T02:06:02.800Z,28.89
2024-04-16T02:07:02.880Z,28.87
2024-04-16T02:08:02.807Z,28.99
2024-04-16T02:09:02.830Z,29.01
2024-04-16T02:10:02.927Z,29.07
2024-04-16T02:11:02.857Z,29.01
2024-04-16T02:12:02.946Z,29.11
2024-04-16T02:13:02.920Z,29.11
2024-04-16T02:14:02.869Z,29.15
2024-04-16T02:15:02.875Z,29.13
2024-04-16T02:16:02.938Z,29.24
2024-04-16T02:17:02.893Z,29.17
2024-04-16T02:18:02.972Z,29.18
2024-04-16T02:19:02.929Z,29.21
2024-04-16T02:20:02.922Z,29.24
2024-04-16T02:21:02.929Z,29.22
2024-04-16T02:22:03.432Z,29.32
2024-04-16T02:23:02.940Z,29.21
2024-04-16T02:24:02.999Z,29.26
2024-04-16T02:25:10.081Z,29.24
2024-04-16T02:26:03.086Z,29.21
2024-04-16T02:27:03.098Z,29.24
2024-04-16T02:28:03.124Z,29.20
2024-04-16T02:29:03.114Z,29.18
2024-04-16T02:30:03.119Z,29.22
2024-04-16T02:31:18.082Z,29.14
2024-04-16T02:32:03.153Z,29.12
2024-04-16T02:33:03.185Z,29.13
2024-04-16T02:34:03.185Z,29.21
2024-04-16T02:35:03.159Z,29.24
2024-04-16T02:36:03.170Z,29.10
2024-04-16T02:37:03.210Z,29.19
2024-04-16T02:38:03.173Z,29.07
2024-04-16T02:39:03.188Z,29.10
2024-04-16T02:40:03.248Z,29.12
2024-04-16T02:41:03.233Z,29.05
2024-04-16T02:42:03.218Z,29.06
2024-04-16T02:43:03.260Z,29.01
2024-04-16T02:44:03.272Z,28.97
2024-04-16T02:45:03.260Z,28.97
2024-04-16T02:46:03.309Z,29.06
2024-04-16T02:47:06.255Z,28.98
2024-04-16T02:48:03.374Z,28.93
2024-04-16T02:49:03.343Z,29.00
2024-04-16T02:50:08.578Z,29.01
2024-04-16T02:51:03.294Z,29.00
2024-04-16T02:52:03.314Z,28.90
2024-04-16T02:53:06.071Z,28.92
2024-04-16T02:54:03.368Z,28.94
2024-04-16T02:55:03.451Z,28.85
2024-04-16T02:56:24.392Z,28.95
2024-04-16T02:57:03.408Z,28.93
2024-04-16T02:58:03.433Z,28.90
2024-04-16T02:59:03.427Z,28.79
2024-04-16T03:00:03.439Z,28.83
2024-04-16T03:01:03.535Z,28.83
2024-04-16T03:02:03.466Z,28.80
2024-04-16T03:03:03.564Z,28.78
2024-04-16T03:04:03.506Z,28.75
2024-04-16T03:05:03.525Z,28.77
2024-04-16T03:06:03.515Z,28.84
2024-04-16T03:07:03.544Z,28.84
2024-04-16T03:08:03.542Z,28.70
2024-04-16T03:09:03.542Z,28.84
2024-04-16T03:10:03.624Z,28.72
2024-04-16T03:11:03.643Z,28.85
2024-04-16T03:12:03.570Z,28.70
2024-04-16T03:13:03.644Z,28.64
2024-04-16T03:14:03.594Z,28.60
2024-04-16T03:15:09.079Z,28.64
2024-04-16T03:16:03.727Z,28.61
2024-04-16T03:17:03.813Z,28.60
2024-04-16T03:18:18.632Z,28.64
2024-04-16T03:19:03.954Z,28.51
2024-04-16T03:20:03.881Z,28.52
2024-04-16T03:21:26.285Z,28.64
2024-04-16T03:22:03.965Z,28.58
2024-04-16T03:23:03.894Z,28.60
2024-04-16T03:24:31.577Z,28.60
2024-04-16T03:25:04.045Z,28.54
2024-04-16T03:26:03.924Z,28.54
2024-04-16T03:27:03.939Z,28.54
2024-04-16T03:28:03.967Z,28.49
2024-04-16T03:29:03.953Z,28.49
2024-04-16T03:30:03.971Z,28.54
2024-04-16T03:31:04.016Z,28.54
2024-04-16T03:32:04.014Z,28.52
2024-04-16T03:33:04.051Z,28.44
2024-04-16T03:34:04.072Z,28.46
2024-04-16T03:35:04.027Z,28.42
2024-04-16T03:36:04.043Z,28.46
2024-04-16T03:37:04.132Z,28.48
2024-04-16T03:38:04.049Z,28.50
2024-04-16T03:39:04.059Z,28.54
2024-04-16T03:40:04.134Z,28.40
2024-04-16T03:41:04.080Z,28.43
2024-04-16T03:42:04.115Z,28.44
2024-04-16T03:43:07.107Z,28.38
2024-04-16T03:44:04.118Z,28.33
2024-04-16T03:45:04.152Z,28.36
2024-04-16T03:46:04.180Z,28.31
2024-04-16T03:47:04.204Z,28.29
2024-04-16T03:48:04.245Z,28.31
2024-04-16T03:49:26.134Z,28.26
2024-04-16T03:50:04.249Z,28.24
2024-04-16T03:51:04.232Z,28.20
2024-04-16T03:52:04.248Z,28.24
2024-04-16T03:53:04.266Z,28.23
2024-04-16T03:54:04.298Z,28.17
2024-04-16T03:55:04.362Z,28.13
2024-04-16T03:56:04.324Z,28.16
2024-04-16T03:57:04.315Z,28.18
2024-04-16T03:58:04.353Z,28.11
2024-04-16T03:59:04.347Z,28.15
2024-04-16T04:00:04.361Z,28.16
2024-04-16T04:01:04.494Z,28.14
2024-04-16T04:02:06.809Z,28.10
2024-04-16T04:03:04.480Z,28.00
2024-04-16T04:04:04.496Z,28.00
2024-04-16T04:05:11.216Z,28.01
2024-04-16T04:06:04.462Z,28.00
2024-04-16T04:07:04.474Z,27.97
2024-04-16T04:08:19.097Z,27.98
2024-04-16T04:09:04.722Z,28.00
2024-04-16T04:10:04.797Z,28.00
2024-04-16T04:11:19.132Z,28.01
2024-04-16T04:12:04.779Z,28.03
2024-04-16T04:13:04.791Z,27.90
2024-04-16T04:14:19.594Z,27.88
2024-04-16T04:15:04.813Z,27.89
2024-04-16T04:16:04.874Z,27.85
2024-04-16T04:17:40.679Z,27.88
2024-04-16T04:18:04.948Z,27.90
2024-04-16T04:19:04.886Z,27.84
2024-04-16T04:20:04.879Z,27.92
2024-04-16T04:21:04.917Z,27.80
2024-04-16T04:22:04.971Z,27.83
2024-04-16T04:23:04.902Z,27.79
2024-04-16T04:24:09.795Z,27.77
2024-04-16T04:25:05.934Z,27.75
2024-04-16T04:26:04.926Z,27.73
2024-04-16T04:27:05.013Z,27.73
2024-04-16T04:28:04.979Z,27.70
2024-04-16T04:29:04.967Z,27.63
2024-04-16T04:30:04.980Z,27.62
2024-04-16T04:31:05.036Z,27.59
2024-04-16T04:32:05.142Z,27.70
2024-04-16T04:33:05.042Z,27.63
2024-04-16T04:34:05.071Z,27.52
2024-04-16T04:35:12.291Z,27.64
2024-04-16T04:36:14.901Z,27.66
2024-04-16T04:37:12.338Z,27.66
2024-04-16T04:38:12.266Z,27.54
2024-04-16T04:39:12.378Z,27.50
2024-04-16T04:40:12.299Z,27.50
2024-04-16T04:41:12.296Z,27.53
2024-04-16T04:42:26.914Z,27.50
2024-04-16T04:43:12.272Z,27.43
2024-04-16T04:44:12.210Z,27.33
2024-04-16T04:45:33.930Z,27.36
2024-04-16T04:46:12.282Z,27.40
2024-04-16T04:47:12.207Z,27.43
2024-04-16T04:48:12.255Z,27.43
2024-04-16T04:49:12.189Z,27.39
2024-04-16T04:50:12.169Z,27.39
2024-04-16T04:51:12.157Z,27.35
2024-04-16T04:52:12.179Z,27.38
2024-04-16T04:53:12.171Z,27.35
2024-04-16T04:54:12.135Z,27.29
2024-04-16T04:55:12.148Z,27.23
2024-04-16T04:56:12.111Z,27.28
2024-04-16T04:57:12.126Z,27.19
2024-04-16T04:58:12.132Z,27.17
2024-04-16T04:59:12.115Z,27.19
2024-04-16T05:00:12.095Z,27.20
2024-04-16T05:01:19.019Z,27.13
2024-04-16T05:02:12.125Z,27.12
2024-04-16T05:03:12.056Z,27.13
2024-04-16T05:04:12.051Z,27.19
2024-04-16T05:05:12.035Z,27.18
2024-04-16T05:06:12.035Z,27.19
2024-04-16T05:07:33.093Z,27.08
2024-04-16T05:08:12.004Z,27.10
2024-04-16T05:09:11.997Z,27.03
2024-04-16T05:10:19.961Z,26.96
2024-04-16T05:11:12.104Z,26.98
2024-04-16T05:12:13.948Z,26.96
2024-04-16T05:13:39.965Z,26.98
2024-04-16T05:14:11.924Z,26.94
2024-04-16T05:15:11.913Z,26.98
2024-04-16T05:16:11.935Z,26.93
2024-04-16T05:17:11.882Z,26.96
2024-04-16T05:18:11.981Z,26.89
2024-04-16T05:19:11.878Z,26.85
2024-04-16T05:20:11.861Z,26.85
2024-04-16T05:21:11.859Z,26.95
2024-04-16T05:22:11.852Z,26.96
2024-04-16T05:23:11.823Z,26.92
2024-04-16T05:24:11.808Z,26.85
2024-04-16T05:25:11.844Z,26.88
2024-04-16T05:26:11.799Z,26.95
2024-04-16T05:27:11.805Z,27.31
2024-04-16T05:28:11.774Z,27.16
2024-04-16T05:29:11.764Z,27.38
2024-04-16T05:30:11.930Z,28.04
2024-04-16T05:31:11.833Z,28.02
2024-04-16T05:32:26.495Z,28.33
2024-04-16T05:33:11.744Z,28.81
2024-04-16T05:34:11.728Z,28.92
2024-04-16T05:35:29.933Z,29.24
2024-04-16T05:36:11.660Z,29.12
2024-04-16T05:37:11.690Z,29.97
2024-04-16T05:38:35.441Z,29.76
2024-04-16T05:39:11.601Z,29.93
2024-04-16T05:40:11.612Z,30.08
2024-04-16T05:41:11.685Z,30.06
2024-04-16T05:42:11.535Z,29.99
2024-04-16T05:43:11.553Z,30.21
2024-04-16T05:44:11.513Z,30.18
2024-04-16T05:45:11.935Z,30.24
2024-04-16T05:46:11.490Z,30.33
2024-04-16T05:47:11.486Z,30.23
2024-04-16T05:48:11.529Z,30.30
2024-04-16T05:49:11.419Z,30.28
2024-04-16T05:50:11.394Z,30.36
2024-04-16T05:51:11.368Z,30.38
2024-04-16T05:52:11.375Z,30.29
2024-04-16T05:53:11.327Z,30.21
2024-04-16T05:54:11.310Z,30.28
2024-04-16T05:55:11.336Z,30.45
2024-04-16T05:56:11.324Z,30.32
2024-04-16T05:57:11.251Z,30.36
2024-04-16T05:58:11.259Z,30.34
2024-04-16T05:59:11.214Z,30.34
2024-04-16T06:00:11.951Z,30.41
2024-04-16T06:01:11.256Z,30.46
2024-04-16T06:02:11.243Z,30.40
2024-04-16T06:03:25.974Z,30.47
2024-04-16T06:04:11.179Z,30.47
2024-04-16T06:05:11.087Z,30.45
2024-04-16T06:06:38.931Z,30.44
2024-04-16T06:07:11.175Z,30.42
2024-04-16T06:08:11.938Z,30.46
2024-04-16T06:09:10.997Z,30.51
2024-04-16T06:10:11.007Z,30.47
2024-04-16T06:11:11.008Z,30.44
2024-04-16T06:12:10.979Z,30.34
2024-04-16T06:13:10.992Z,30.36
2024-04-16T06:14:10.906Z,30.27
2024-04-16T06:15:10.900Z,30.30
2024-04-16T06:16:10.933Z,30.31
2024-04-16T06:17:10.819Z,30.39
2024-04-16T06:18:10.892Z,30.31
2024-04-16T06:19:13.483Z,30.31
2024-04-16T06:20:10.998Z,30.16
2024-04-16T06:21:10.731Z,30.25
2024-04-16T06:22:10.736Z,30.22
2024-04-16T06:23:10.694Z,30.21
2024-04-16T06:24:10.658Z,30.07
2024-04-16T06:25:27.027Z,30.15
2024-04-16T06:26:10.611Z,30.10
2024-04-16T06:27:10.578Z,29.76
2024-04-16T06:28:10.616Z,29.73
2024-04-16T06:29:10.531Z,29.95
2024-04-16T06:30:10.958Z,29.81
2024-04-16T06:31:33.979Z,29.39
2024-04-16T06:32:10.553Z,29.54
2024-04-16T06:33:10.558Z,29.59
2024-04-16T06:34:10.509Z,29.91
2024-04-16T06:35:10.969Z,29.94
2024-04-16T06:36:10.491Z,29.86
2024-04-16T06:37:10.460Z,29.86
2024-04-16T06:38:10.451Z,29.83
2024-04-16T06:39:10.411Z,29.91
2024-04-16T06:40:10.421Z,29.81
2024-04-16T06:41:10.396Z,29.64
2024-04-16T06:42:12.072Z,29.57
2024-04-16T06:43:10.398Z,29.88
2024-04-16T06:44:10.340Z,29.80
2024-04-16T06:45:10.310Z,29.80
2024-04-16T06:46:10.307Z,29.80
2024-04-16T06:47:12.959Z,29.82
2024-04-16T06:48:10.267Z,29.73
2024-04-16T06:49:17.174Z,29.71
2024-04-16T06:50:22.089Z,29.77
2024-04-16T06:51:10.129Z,29.65
2024-04-16T06:52:10.148Z,29.25
2024-04-16T06:53:12.958Z,29.01
2024-04-16T06:54:10.031Z,29.04
2024-04-16T06:55:10.483Z,29.21
2024-04-16T06:56:31.956Z,28.26
2024-04-16T06:57:09.939Z,29.13
2024-04-16T06:58:09.939Z,29.27
2024-04-16T06:59:09.886Z,28.78
2024-04-16T07:00:09.964Z,28.38
2024-04-16T07:01:09.888Z,27.91
2024-04-16T07:02:09.853Z,28.46
2024-04-16T07:03:09.772Z,28.76
2024-04-16T07:04:09.760Z,28.80
2024-04-16T07:05:09.690Z,28.86
2024-04-16T07:06:09.652Z,28.69
2024-04-16T07:07:09.722Z,28.88
2024-04-16T07:08:09.580Z,29.06
2024-04-16T07:09:09.574Z,29.10
2024-04-16T07:10:10.026Z,29.15
2024-04-16T07:11:09.479Z,28.87
2024-04-16T07:12:09.447Z,29.14
2024-04-16T07:13:09.460Z,29.17
2024-04-16T07:14:09.392Z,29.23
2024-04-16T07:15:09.467Z,29.28
2024-04-16T07:16:09.375Z,29.26
2024-04-16T07:17:09.377Z,29.27
2024-04-16T07:18:09.414Z,29.26
2024-04-16T07:19:09.276Z,29.27
2024-04-16T07:20:09.221Z,29.23
2024-04-16T07:21:16.992Z,29.26
2024-04-16T07:22:09.144Z,29.21
2024-04-16T07:23:09.092Z,29.19
2024-04-16T07:25:09.553Z,28.99
2024-04-16T07:26:09.472Z,28.49
2024-04-16T07:27:08.926Z,27.86
2024-04-16T07:28:08.931Z,28.02
2024-04-16T07:29:08.874Z,28.24
2024-04-16T07:30:08.978Z,28.36
2024-04-16T07:32:08.819Z,28.45
2024-04-16T07:33:08.956Z,28.72
2024-04-16T07:34:08.821Z,28.64
2024-04-16T07:35:09.003Z,28.67
2024-04-16T07:36:08.627Z,28.81
2024-04-16T07:37:08.646Z,28.48
2024-04-16T07:38:12.007Z,28.62
2024-04-16T07:39:08.567Z,28.71
2024-04-16T07:40:23.033Z,28.37
2024-04-16T07:41:08.583Z,28.34
2024-04-16T07:42:08.554Z,27.97
2024-04-16T07:43:23.563Z,27.69
2024-04-16T07:44:08.530Z,27.61
2024-04-16T07:45:08.464Z,27.22
2024-04-16T07:46:32.019Z,26.97
2024-04-16T07:47:08.696Z,26.84
2024-04-16T07:48:08.649Z,26.76
2024-04-16T07:49:23.528Z,26.74
2024-04-16T07:50:08.984Z,27.21
2024-04-16T07:51:08.588Z,27.03
2024-04-16T07:52:08.696Z,27.25
2024-04-16T07:53:08.534Z,27.71
2024-04-16T07:54:08.521Z,27.62
2024-04-16T07:55:08.500Z,27.88
2024-04-16T07:56:08.429Z,27.92
2024-04-16T07:57:08.396Z,27.96
2024-04-16T07:58:08.389Z,27.91
2024-04-16T07:59:08.354Z,27.88
2024-04-16T08:00:08.514Z,27.71
2024-04-16T08:01:08.461Z,27.76
2024-04-16T08:02:08.324Z,27.84
2024-04-16T08:03:08.304Z,27.88
2024-04-16T08:04:08.274Z,27.89
2024-04-16T08:05:10.056Z,27.89
2024-04-16T08:06:08.135Z,27.98
2024-04-16T08:07:08.159Z,27.88
2024-04-16T08:08:12.439Z,27.64
2024-04-16T08:09:09.037Z,27.77
2024-04-16T08:10:08.027Z,27.67
2024-04-16T08:11:28.981Z,27.66
2024-04-16T08:12:07.928Z,27.79
2024-04-16T08:13:07.972Z,27.70
2024-04-16T08:14:22.488Z,27.75
2024-04-16T08:15:07.850Z,27.52
2024-04-16T08:16:07.926Z,27.64
2024-04-16T08:17:07.838Z,27.64
2024-04-16T08:18:07.735Z,27.61
2024-04-16T08:19:07.709Z,27.62
2024-04-16T08:20:09.869Z,27.64
2024-04-16T08:21:07.608Z,27.58
2024-04-16T08:22:11.004Z,27.07
2024-04-16T08:23:08.535Z,27.45
2024-04-16T08:24:07.507Z,27.55
2024-04-16T08:25:07.487Z,27.65
2024-04-16T08:26:09.594Z,27.59
2024-04-16T08:27:07.387Z,27.69
2024-04-16T08:28:07.433Z,27.69
2024-04-16T08:29:07.305Z,27.23
2024-04-16T08:30:07.276Z,27.24
2024-04-16T08:31:07.259Z,27.47
2024-04-16T08:32:09.373Z,27.51
2024-04-16T08:33:24.718Z,27.20
2024-04-16T08:34:07.230Z,27.02
2024-04-16T08:35:07.191Z,26.81
2024-04-16T08:36:22.031Z,26.89
2024-04-16T08:37:07.119Z,26.90
2024-04-16T08:38:08.070Z,25.92
2024-04-16T08:39:23.026Z,26.05
2024-04-16T08:40:07.047Z,26.14
2024-04-16T08:41:06.935Z,26.63
2024-04-16T08:42:34.504Z,26.85
2024-04-16T08:43:06.943Z,27.19
2024-04-16T08:44:09.926Z,26.19
2024-04-16T08:45:06.859Z,26.05
2024-04-16T08:46:06.838Z,26.15
2024-04-16T08:47:06.805Z,26.02
2024-04-16T08:48:06.795Z,25.45
2024-04-16T08:49:06.722Z,25.68
2024-04-16T08:50:06.704Z,25.80
2024-04-16T08:51:07.006Z,25.80
2024-04-16T08:52:06.726Z,25.87
2024-04-16T08:53:06.623Z,25.93
2024-04-16T08:54:06.597Z,25.49
2024-04-16T08:55:07.079Z,25.11
2024-04-16T08:56:06.552Z,25.24
2024-04-16T08:57:06.527Z,24.96
2024-04-16T08:58:06.542Z,25.06
2024-04-16T08:59:06.495Z,25.24
2024-04-16T09:00:06.463Z,25.21
2024-04-16T09:01:11.604Z,24.90
2024-04-16T09:02:06.462Z,24.86
2024-04-16T09:03:06.401Z,24.79
2024-04-16T09:04:27.432Z,24.98
2024-04-16T09:05:06.485Z,25.11
2024-04-16T09:06:06.346Z,25.03
2024-04-16T09:07:28.695Z,24.93
2024-04-16T09:08:06.297Z,24.73
2024-04-16T09:09:10.359Z,24.85
2024-04-16T09:10:06.704Z,24.60
2024-04-16T09:11:06.569Z,24.07
2024-04-16T09:12:06.380Z,23.91
2024-04-16T09:13:06.234Z,23.81
2024-04-16T09:14:06.173Z,23.91
2024-04-16T09:15:06.154Z,24.01
2024-04-16T09:16:06.177Z,23.73
2024-04-16T09:17:06.193Z,23.67
2024-04-16T09:18:06.107Z,23.73
2024-04-16T09:19:06.140Z,23.70
2024-04-16T09:20:06.040Z,23.78
2024-04-16T09:21:06.025Z,23.68
2024-04-16T09:22:06.037Z,23.38
2024-04-16T09:23:07.112Z,23.05
2024-04-16T09:24:05.959Z,23.28
2024-04-16T09:25:05.992Z,22.94
2024-04-16T09:26:12.532Z,22.48
2024-04-16T09:27:05.910Z,23.54
2024-04-16T09:28:05.918Z,23.95
2024-04-16T09:29:09.023Z,23.90
2024-04-16T09:30:05.887Z,23.96
2024-04-16T09:31:05.887Z,24.40
2024-04-16T09:32:20.553Z,24.67
2024-04-16T09:33:11.069Z,24.55
2024-04-16T09:34:06.870Z,24.63
2024-04-16T09:35:32.023Z,24.80
2024-04-16T09:36:05.713Z,24.87
2024-04-16T09:37:05.679Z,25.05
2024-04-16T09:38:05.628Z,25.25
2024-04-16T09:39:05.645Z,25.20
2024-04-16T09:40:05.810Z,25.36
2024-04-16T09:41:05.515Z,25.50
2024-04-16T09:42:05.484Z,25.75
2024-04-16T09:43:06.461Z,25.81
2024-04-16T09:44:05.524Z,25.96
2024-04-16T09:45:05.510Z,26.00
2024-04-16T09:46:05.504Z,25.99
2024-04-16T09:47:05.607Z,25.90
2024-04-16T09:48:06.400Z,25.75
2024-04-16T09:49:05.594Z,25.69
2024-04-16T09:50:11.951Z,25.52
2024-04-16T09:51:06.566Z,25.42
2024-04-16T09:52:05.623Z,25.17
2024-04-16T09:53:05.430Z,25.21
2024-04-16T09:54:20.045Z,25.00
2024-04-16T09:55:05.425Z,25.35
2024-04-16T09:56:05.311Z,25.50
2024-04-16T09:57:20.056Z,25.59
2024-04-16T09:58:05.269Z,25.60
2024-04-16T09:59:05.200Z,25.67
2024-04-16T10:00:36.113Z,25.65
2024-04-16T10:01:05.420Z,25.61
2024-04-16T10:02:05.285Z,25.81
2024-04-16T10:03:05.281Z,25.50
2024-04-16T10:04:05.332Z,25.87
2024-04-16T10:05:05.252Z,25.93
2024-04-16T10:06:05.265Z,26.04
2024-04-16T10:07:05.467Z,26.04
2024-04-16T10:08:05.293Z,26.03
2024-04-16T10:09:05.361Z,25.98
2024-04-16T10:10:05.570Z,25.64
2024-04-16T10:11:11.537Z,25.95
2024-04-16T10:12:06.571Z,26.09
2024-04-16T10:13:05.309Z,26.19
2024-04-16T10:14:05.207Z,25.96
2024-04-16T10:15:05.156Z,26.28
2024-04-16T10:16:05.113Z,26.38
2024-04-16T10:17:05.144Z,26.35
2024-04-16T10:18:05.062Z,26.35
2024-04-16T10:19:14.512Z,26.43
2024-04-16T10:20:04.998Z,25.00
2024-04-16T10:21:04.965Z,25.35
2024-04-16T10:22:10.069Z,25.45
2024-04-16T10:23:04.917Z,25.41
2024-04-16T10:24:04.851Z,25.32
2024-04-16T10:25:29.068Z,25.36
2024-04-16T10:26:04.775Z,25.24
2024-04-16T10:27:04.741Z,25.15
2024-04-16T10:28:04.697Z,24.94
2024-04-16T10:29:04.685Z,24.44
2024-04-16T10:30:04.632Z,24.81
2024-04-16T10:31:04.600Z,24.20
2024-04-16T10:32:07.024Z,24.23
2024-04-16T10:33:04.619Z,22.70
2024-04-16T10:34:04.513Z,22.11
2024-04-16T10:35:04.418Z,21.81
2024-04-16T10:36:04.499Z,20.94
2024-04-16T10:37:04.509Z,21.26
2024-04-16T10:38:05.898Z,21.45
2024-04-16T10:39:04.245Z,20.84
2024-04-16T10:40:04.210Z,21.65
2024-04-16T10:41:04.228Z,21.65
2024-04-16T10:42:04.172Z,20.88
2024-04-16T10:43:04.094Z,20.66
2024-04-16T10:44:04.069Z,20.84
2024-04-16T10:45:04.067Z,21.43
2024-04-16T10:46:04.059Z,21.80
2024-04-16T10:47:25.132Z,21.85
2024-04-16T10:48:04.093Z,22.43
2024-04-16T10:49:03.915Z,22.48
2024-04-16T10:50:18.599Z,22.48
2024-04-16T10:51:03.826Z,22.24
2024-04-16T10:52:03.772Z,20.77
2024-04-16T10:53:24.711Z,21.30
2024-04-16T10:54:03.672Z,20.89
2024-04-16T10:55:03.631Z,21.71
2024-04-16T10:56:03.596Z,20.93
2024-04-16T10:57:03.550Z,21.32
2024-04-16T10:58:03.504Z,21.89
2024-04-16T10:59:03.489Z,22.14
2024-04-16T11:00:09.410Z,21.73
2024-04-16T11:01:04.449Z,22.18
2024-04-16T11:02:03.359Z,22.34
2024-04-16T11:03:03.321Z,22.34
2024-04-16T11:04:03.304Z,22.56
2024-04-16T11:05:03.329Z,22.76
2024-04-16T11:06:03.207Z,22.94
2024-04-16T11:07:03.183Z,23.03
2024-04-16T11:08:03.148Z,23.26
2024-04-16T11:09:03.090Z,23.27
2024-04-16T11:10:03.061Z,23.26
2024-04-16T11:11:03.143Z,23.56
2024-04-16T11:12:10.060Z,23.60
2024-04-16T11:13:02.950Z,23.78
2024-04-16T11:14:02.904Z,20.94
2024-04-16T11:15:10.092Z,22.71
2024-04-16T11:16:03.078Z,22.83
2024-04-16T11:17:02.828Z,22.65
2024-04-16T11:18:33.635Z,23.03
2024-04-16T11:19:02.721Z,22.27
2024-04-16T11:20:02.685Z,22.91
2024-04-16T11:21:02.649Z,23.09
2024-04-16T11:22:02.626Z,23.35
2024-04-16T11:23:02.587Z,23.31
2024-04-16T11:24:02.543Z,23.43
2024-04-16T11:25:02.518Z,23.30
2024-04-16T11:26:03.027Z,23.61
2024-04-16T11:27:02.477Z,23.63
2024-04-16T11:28:02.400Z,23.65
2024-04-16T11:29:02.374Z,23.69
2024-04-16T11:30:02.344Z,23.63
2024-04-16T11:31:02.313Z,23.67
2024-04-16T11:32:02.289Z,23.66
2024-04-16T11:33:02.311Z,23.63
2024-04-16T11:34:02.306Z,23.63
2024-04-16T11:35:02.218Z,23.55
2024-04-16T11:36:02.143Z,23.73
2024-04-16T11:37:02.101Z,23.78
2024-04-16T11:38:02.079Z,23.85
2024-04-16T11:39:02.038Z,23.91
2024-04-16T11:40:16.650Z,23.99
2024-04-16T11:41:05.889Z,23.81
2024-04-16T11:42:02.938Z,23.93
2024-04-16T11:43:29.576Z,23.97
2024-04-16T11:44:01.830Z,23.89
2024-04-16T11:45:01.808Z,23.88
2024-04-16T11:46:01.764Z,23.93
2024-04-16T11:47:01.751Z,23.76
2024-04-16T11:48:01.761Z,23.77
2024-04-16T11:49:01.655Z,23.60
2024-04-16T11:50:01.614Z,23.63
2024-04-16T11:51:01.575Z,23.53
2024-04-16T11:52:01.557Z,23.46
2024-04-16T11:53:01.498Z,23.33
2024-04-16T11:54:01.476Z,23.27
2024-04-16T11:55:01.433Z,23.13
2024-04-16T11:56:01.404Z,23.03
2024-04-16T11:57:01.359Z,22.91
2024-04-16T11:58:01.308Z,22.83
2024-04-16T11:59:01.273Z,22.80
2024-04-16T12:00:01.247Z,22.64
2024-04-16T12:01:01.243Z,22.46
2024-04-16T12:02:01.251Z,22.38
2024-04-16T12:03:01.164Z,22.34
2024-04-16T12:04:01.213Z,22.32
2024-04-16T12:05:22.222Z,22.11
2024-04-16T12:06:01.067Z,22.05
2024-04-16T12:07:01.007Z,21.99
2024-04-16T12:08:10.300Z,21.88
2024-04-16T12:09:00.943Z,21.85
2024-04-16T12:10:00.899Z,21.73
2024-04-16T12:11:32.648Z,21.64
2024-04-16T12:12:00.819Z,21.51
2024-04-16T12:13:00.785Z,21.45
2024-04-16T12:14:00.789Z,21.39
2024-04-16T12:15:00.729Z,21.29
2024-04-16T12:16:00.703Z,21.15
2024-04-16T12:17:00.726Z,21.16
2024-04-16T12:18:00.717Z,21.15
2024-04-16T12:19:00.621Z,21.07
2024-04-16T12:20:00.586Z,20.95
2024-04-16T12:21:00.649Z,20.92
2024-04-16T12:22:00.526Z,20.80
2024-04-16T12:23:00.500Z,20.86
2024-04-16T12:24:00.467Z,20.76
2024-04-16T12:25:00.492Z,20.79
2024-04-16T12:26:00.452Z,20.72
2024-04-16T12:27:00.354Z,20.65
2024-04-16T12:28:00.341Z,20.67
2024-04-16T12:29:00.413Z,20.55
2024-04-16T12:30:15.095Z,20.60
2024-04-16T12:31:00.244Z,20.50
2024-04-16T12:32:02.234Z,20.52
2024-04-16T12:33:06.094Z,20.43
2024-04-16T12:34:01.171Z,20.39
2024-04-16T12:35:00.150Z,20.37
2024-04-16T12:36:23.103Z,20.29
2024-04-16T12:37:00.066Z,20.32
2024-04-16T12:38:00.012Z,20.26
2024-04-16T12:38:59.994Z,20.23
2024-04-16T12:39:59.949Z,20.16
2024-04-16T12:40:59.919Z,20.09
2024-04-16T12:41:59.915Z,20.08
2024-04-16T12:42:59.846Z,20.02
2024-04-16T12:43:59.814Z,20.08
2024-04-16T12:44:59.818Z,20.01
2024-04-16T12:45:59.767Z,19.94
2024-04-16T12:46:59.736Z,19.99
2024-04-16T12:47:59.837Z,19.95
2024-04-16T12:48:59.691Z,19.97
2024-04-16T12:49:59.668Z,19.91
2024-04-16T12:51:00.104Z,19.86
2024-04-16T12:51:59.615Z,19.85
2024-04-16T12:52:59.596Z,19.80
2024-04-16T12:53:59.611Z,19.74